createdAt,value
2023-02-03T00:00:37.114Z,98004.25
2023-02-03T00:03:04.198Z,98013.19
2023-02-03T00:05:31.318Z,98012.19
2023-02-03T00:07:58.251Z,98009.41
2023-02-03T00:10:25.444Z,98002.25
2023-02-03T00:12:57.710Z,98006.06
2023-02-03T00:15:24.628Z,98003.72
2023-02-03T00:17:51.603Z,97999.91
2023-02-03T00:20:19.203Z,97994.72
2023-02-03T00:22:46.172Z,97986.78
2023-02-03T00:25:13.240Z,97988.00
2023-02-03T00:27:40.459Z,97993.09
2023-02-03T00:30:07.872Z,97984.38
2023-02-03T00:32:34.839Z,97991.78
2023-02-03T00:35:01.791Z,97986.19
2023-02-03T00:37:28.722Z,97991.81
2023-02-03T00:39:55.650Z,97999.41
2023-02-03T00:42:22.603Z,98001.13
2023-02-03T00:44:49.493Z,97993.50
2023-02-03T00:47:16.474Z,97991.00
2023-02-03T00:49:43.571Z,97995.34
2023-02-03T00:52:10.532Z,97995.97
2023-02-03T00:54:38.516Z,98000.50
2023-02-03T00:57:05.538Z,97995.03
2023-02-03T00:59:32.565Z,98001.00
2023-02-03T01:01:59.516Z,97997.03
2023-02-03T01:04:26.503Z,97995.53
2023-02-03T01:06:57.521Z,98000.44
2023-02-03T01:09:24.752Z,97996.97
2023-02-03T01:11:54.151Z,97996.13
2023-02-03T01:14:21.183Z,97988.19
2023-02-03T01:16:48.220Z,97990.88
2023-02-03T01:19:15.334Z,97986.81
2023-02-03T01:21:42.316Z,97985.38
2023-02-03T01:24:12.026Z,97983.22
2023-02-03T01:26:39.111Z,97985.31
2023-02-03T01:29:06.067Z,97975.66
2023-02-03T01:31:39.897Z,97987.34
2023-02-03T01:34:08.263Z,97982.94
2023-02-03T01:36:35.296Z,97985.81
2023-02-03T01:39:03.051Z,97974.41
2023-02-03T01:41:31.697Z,97970.38
2023-02-03T01:43:59.513Z,97971.88
2023-02-03T01:46:36.300Z,97967.28
2023-02-03T01:49:13.214Z,97965.84
2023-02-03T01:51:41.098Z,97961.31
2023-02-03T01:54:09.442Z,97972.91
2023-02-03T01:56:36.853Z,97974.41
2023-02-03T01:59:03.766Z,97972.69
2023-02-03T02:01:30.794Z,97969.16
2023-02-03T02:03:59.123Z,97978.06
2023-02-03T02:06:26.172Z,97968.16
2023-02-03T02:08:53.479Z,97962.34
2023-02-03T02:11:21.565Z,97954.50
2023-02-03T02:13:49.575Z,97961.00
2023-02-03T02:16:25.003Z,97973.56
2023-02-03T02:19:13.589Z,97973.94
2023-02-03T02:21:43.540Z,97963.00
2023-02-03T02:24:30.206Z,97971.44
2023-02-03T02:27:06.359Z,97967.38
2023-02-03T02:29:58.326Z,97966.03
2023-02-03T02:32:40.687Z,97959.78
2023-02-03T02:35:17.695Z,97952.78
2023-02-03T02:37:56.099Z,97936.22
2023-02-03T02:40:43.362Z,97947.19
2023-02-03T02:43:20.638Z,97938.84
2023-02-03T02:45:56.408Z,97930.72
2023-02-03T02:48:38.243Z,97941.22
2023-02-03T02:51:06.281Z,97934.13
2023-02-03T02:53:35.824Z,97917.13
2023-02-03T02:56:05.437Z,97932.22
2023-02-03T02:58:32.420Z,97930.09
2023-02-03T03:00:59.405Z,97931.63
2023-02-03T03:03:26.393Z,97926.03
2023-02-03T03:05:58.907Z,97925.25
2023-02-03T03:08:36.490Z,97938.59
2023-02-03T03:11:03.560Z,97936.44
2023-02-03T03:13:34.544Z,97936.38
2023-02-03T03:16:02.159Z,97922.72
2023-02-03T03:18:43.263Z,97921.44
2023-02-03T03:21:10.482Z,97928.22
2023-02-03T03:23:39.696Z,97926.88
2023-02-03T03:26:35.486Z,97923.53
2023-02-03T03:29:18.749Z,97940.22
2023-02-03T03:31:45.739Z,97937.78
2023-02-03T03:34:12.740Z,97941.00
2023-02-03T03:36:54.014Z,97937.13
2023-02-03T03:39:24.788Z,97932.91
2023-02-03T03:42:00.593Z,97934.34
2023-02-03T03:44:30.087Z,97928.03
2023-02-03T03:47:20.348Z,97929.28
2023-02-03T03:49:47.291Z,97932.53
2023-02-03T03:52:16.954Z,97939.00
2023-02-03T03:54:43.899Z,97950.84
2023-02-03T03:57:16.846Z,97952.81
2023-02-03T03:59:45.848Z,97957.56
2023-02-03T04:02:13.065Z,97971.44
2023-02-03T04:04:40.075Z,97962.91
2023-02-03T04:07:07.025Z,97960.16
2023-02-03T04:09:36.695Z,97965.03
2023-02-03T04:12:06.107Z,97954.44
2023-02-03T04:14:39.983Z,97943.63
2023-02-03T04:17:06.915Z,97942.56
2023-02-03T04:19:33.877Z,97936.22
2023-02-03T04:22:00.826Z,97954.03
2023-02-03T04:24:27.751Z,97972.78
2023-02-03T04:26:55.036Z,97982.13
2023-02-03T04:29:22.066Z,97986.13
2023-02-03T04:31:49.243Z,97979.69
2023-02-03T04:34:16.301Z,97982.81
2023-02-03T04:36:43.213Z,97963.63
2023-02-03T04:39:10.330Z,97975.13
2023-02-03T04:41:37.293Z,97972.31
2023-02-03T04:44:04.390Z,97960.19
2023-02-03T04:46:31.397Z,97955.66
2023-02-03T04:48:58.375Z,97951.13
2023-02-03T04:51:25.310Z,97961.03
2023-02-03T04:53:52.292Z,97958.50
2023-02-03T04:56:19.160Z,97972.09
2023-02-03T04:58:46.147Z,97958.56
2023-02-03T05:01:13.163Z,97962.47
2023-02-03T05:03:40.213Z,97946.56
2023-02-03T05:06:07.237Z,97949.22
2023-02-03T05:08:34.179Z,97941.06
2023-02-03T05:11:02.400Z,97932.16
2023-02-03T05:13:29.721Z,97935.78
2023-02-03T05:15:56.613Z,97939.94
2023-02-03T05:18:23.547Z,97934.13
2023-02-03T05:20:50.505Z,97920.50
2023-02-03T05:23:17.438Z,97920.56
2023-02-03T05:25:44.796Z,97913.47
2023-02-03T05:28:11.910Z,97919.13
2023-02-03T05:30:39.107Z,97923.97
2023-02-03T05:33:06.020Z,97926.84
2023-02-03T05:35:33.030Z,97938.97
2023-02-03T05:37:59.970Z,97939.47
2023-02-03T05:40:46.078Z,97938.75
2023-02-03T05:43:13.029Z,97937.38
2023-02-03T05:45:40.049Z,97931.50
2023-02-03T05:48:10.030Z,97928.09
2023-02-03T05:50:38.726Z,97919.44
2023-02-03T05:53:08.782Z,97928.09
2023-02-03T05:55:35.851Z,97922.94
2023-02-03T05:58:02.870Z,97912.66
2023-02-03T06:00:30.279Z,97938.16
2023-02-03T06:02:58.917Z,97940.28
2023-02-03T06:05:25.979Z,97939.06
2023-02-03T06:07:52.987Z,97921.13
2023-02-03T06:10:20.138Z,97935.34
2023-02-03T06:12:47.138Z,97937.81
2023-02-03T06:15:14.036Z,97945.16
2023-02-03T06:17:44.553Z,97928.28
2023-02-03T06:20:12.317Z,97929.94
2023-02-03T06:22:39.258Z,97931.53
2023-02-03T06:25:06.492Z,97941.50
2023-02-03T06:27:33.408Z,97932.91
2023-02-03T06:30:00.319Z,97938.44
2023-02-03T06:32:27.468Z,97926.16
2023-02-03T06:34:54.413Z,97945.56
2023-02-03T06:37:22.244Z,97933.47
2023-02-03T06:39:50.275Z,97933.16
2023-02-03T06:42:17.224Z,97944.97
2023-02-03T06:44:44.427Z,97941.44
2023-02-03T06:47:11.322Z,97939.84
2023-02-03T06:49:38.357Z,97933.69
2023-02-03T06:52:05.302Z,97930.50
2023-02-03T06:54:32.311Z,97920.91
2023-02-03T06:56:59.257Z,97920.13
2023-02-03T06:59:26.212Z,97903.28
2023-02-03T07:01:53.393Z,97907.13
2023-02-03T07:04:20.341Z,97891.50
2023-02-03T07:06:47.236Z,97895.00
2023-02-03T07:09:14.326Z,97891.97
2023-02-03T07:11:41.225Z,97889.69
2023-02-03T07:14:08.176Z,97885.41
2023-02-03T07:16:36.622Z,97918.59
2023-02-03T07:19:04.169Z,97900.00
2023-02-03T07:21:31.310Z,97915.03
2023-02-03T07:23:58.355Z,97905.69
2023-02-03T07:26:26.640Z,97896.16
2023-02-03T07:28:54.589Z,97898.16
2023-02-03T07:31:21.772Z,97899.66
2023-02-03T07:33:49.194Z,97889.72
2023-02-03T07:36:16.185Z,97886.13
2023-02-03T07:38:43.094Z,97871.59
2023-02-03T07:41:10.183Z,97886.63
2023-02-03T07:43:37.128Z,97911.88
2023-02-03T07:46:04.521Z,97892.63
2023-02-03T07:48:31.495Z,97892.69
2023-02-03T07:50:58.415Z,97896.81
2023-02-03T07:53:25.414Z,97898.38
2023-02-03T07:55:52.350Z,97914.50
2023-02-03T07:58:19.346Z,97916.88
2023-02-03T08:00:46.275Z,97928.88
2023-02-03T08:03:13.309Z,97924.69
2023-02-03T08:05:40.276Z,97927.44
2023-02-03T08:08:07.238Z,97936.09
2023-02-03T08:10:34.253Z,97924.56
2023-02-03T08:13:01.254Z,97942.63
2023-02-03T08:15:28.207Z,97930.47
2023-02-03T08:17:55.439Z,97937.50
2023-02-03T08:20:22.647Z,97933.91
2023-02-03T08:22:49.612Z,97937.44
2023-02-03T08:25:16.544Z,97940.22
2023-02-03T08:27:43.524Z,97947.31
2023-02-03T08:30:12.913Z,97934.19
2023-02-03T08:32:40.107Z,97919.78
2023-02-03T08:35:07.672Z,97910.63
2023-02-03T08:37:34.635Z,97919.84
2023-02-03T08:40:01.706Z,97928.91
2023-02-03T08:42:28.703Z,97935.81
2023-02-03T08:44:55.833Z,97937.16
2023-02-03T08:47:22.741Z,97925.81
2023-02-03T08:49:49.743Z,97921.25
2023-02-03T08:52:18.790Z,97935.91
2023-02-03T08:54:46.568Z,97915.50
2023-02-03T08:57:13.770Z,97917.03
2023-02-03T08:59:41.779Z,97891.97
2023-02-03T09:02:10.733Z,97903.81
2023-02-03T09:04:37.769Z,97873.59
2023-02-03T09:07:05.204Z,97898.34
2023-02-03T09:09:32.595Z,97904.41
2023-02-03T09:12:02.796Z,97896.09
2023-02-03T09:14:30.263Z,97916.09
2023-02-03T09:16:57.248Z,97921.94
2023-02-03T09:19:24.479Z,97907.72
2023-02-03T09:21:51.501Z,97908.53
2023-02-03T09:24:18.737Z,97909.28
2023-02-03T09:26:45.740Z,97923.22
2023-02-03T09:29:13.062Z,97911.34
2023-02-03T09:31:40.203Z,97914.59
2023-02-03T09:34:07.311Z,97909.38
2023-02-03T09:36:34.455Z,97909.09
2023-02-03T09:39:01.507Z,97899.16
2023-02-03T09:41:44.630Z,97909.38
2023-02-03T09:44:24.684Z,97912.78
2023-02-03T09:47:03.089Z,97905.63
2023-02-03T09:49:41.596Z,97903.78
2023-02-03T09:52:19.648Z,97899.66
2023-02-03T09:54:52.652Z,97903.69
2023-02-03T09:57:23.085Z,97909.38
2023-02-03T09:59:50.234Z,97904.53
2023-02-03T10:02:40.015Z,97886.63
2023-02-03T10:05:18.435Z,97905.28
2023-02-03T10:08:07.716Z,97906.91
2023-02-03T10:10:41.087Z,97899.44
2023-02-03T10:13:16.289Z,97902.09
2023-02-03T10:16:08.419Z,97904.72
2023-02-03T10:18:54.468Z,97905.53
2023-02-03T10:21:32.727Z,97913.88
2023-02-03T10:23:59.664Z,97909.19
2023-02-03T10:26:28.216Z,97910.34
2023-02-03T10:28:59.622Z,97907.16
2023-02-03T10:31:29.937Z,97904.09
2023-02-03T10:34:01.279Z,97906.56
2023-02-03T10:36:51.153Z,97916.72
2023-02-03T10:39:20.749Z,97920.56
2023-02-03T10:41:47.884Z,97914.88
2023-02-03T10:44:14.837Z,97907.78
2023-02-03T10:46:43.229Z,97925.63
2023-02-03T10:49:11.994Z,97931.31
2023-02-03T10:51:41.970Z,97917.28
2023-02-03T10:54:32.148Z,97905.66
2023-02-03T10:57:06.593Z,97896.81
2023-02-03T10:59:37.301Z,97871.78
2023-02-03T11:02:09.086Z,97893.34
2023-02-03T11:04:36.189Z,97890.50
2023-02-03T11:07:06.255Z,97886.25
2023-02-03T11:09:40.548Z,97872.78
2023-02-03T11:12:09.723Z,97868.69
2023-02-03T11:14:38.244Z,97868.91
2023-02-03T11:17:09.529Z,97853.88
2023-02-03T11:19:37.157Z,97861.44
2023-02-03T11:22:04.105Z,97856.16
2023-02-03T11:24:32.665Z,97857.78
2023-02-03T11:27:04.438Z,97851.50
2023-02-03T11:29:34.438Z,97832.41
2023-02-03T11:32:04.496Z,97840.28
2023-02-03T11:34:33.423Z,97830.13
2023-02-03T11:37:33.731Z,97807.91
2023-02-03T11:40:12.649Z,97805.22
2023-02-03T11:42:43.443Z,97792.59
2023-02-03T11:45:32.258Z,97776.34
2023-02-03T11:48:24.767Z,97759.84
2023-02-03T11:51:10.994Z,97754.97
2023-02-03T11:54:12.074Z,97756.44
2023-02-03T11:56:54.847Z,97761.16
2023-02-03T11:59:35.810Z,97758.41
2023-02-03T12:02:23.599Z,97746.78
2023-02-03T12:04:59.162Z,97737.44
2023-02-03T12:07:34.306Z,97753.94
2023-02-03T12:10:36.686Z,97740.69
2023-02-03T12:13:06.304Z,97739.03
2023-02-03T12:15:47.030Z,97735.88
2023-02-03T12:18:40.291Z,97731.44
2023-02-03T12:21:30.342Z,97723.69
2023-02-03T12:24:04.883Z,97706.66
2023-02-03T12:26:39.246Z,97717.72
2023-02-03T12:29:18.351Z,97705.94
2023-02-03T12:32:11.004Z,97719.47
2023-02-03T12:34:44.019Z,97715.91
2023-02-03T12:37:17.725Z,97699.06
2023-02-03T12:40:15.383Z,97714.97
2023-02-03T12:42:46.996Z,97690.25
2023-02-03T12:45:17.740Z,97714.91
2023-02-03T12:47:48.909Z,97706.47
2023-02-03T12:50:29.841Z,97715.09
2023-02-03T12:53:00.010Z,97693.56
2023-02-03T12:55:37.989Z,97677.75
2023-02-03T12:58:11.001Z,97692.41
2023-02-03T13:00:44.301Z,97694.72
2023-02-03T13:03:27.715Z,97688.28
2023-02-03T13:06:09.511Z,97673.31
2023-02-03T13:08:50.134Z,97653.50
2023-02-03T13:11:27.501Z,97689.91
2023-02-03T13:14:23.177Z,97666.56
2023-02-03T13:17:00.682Z,97672.75
2023-02-03T13:19:28.380Z,97663.09
2023-02-03T13:21:55.348Z,97659.50
2023-02-03T13:24:25.042Z,97639.41
2023-02-03T13:26:59.209Z,97646.28
2023-02-03T13:30:10.960Z,97641.09
2023-02-03T13:32:55.375Z,97647.59
2023-02-03T13:35:34.515Z,97634.81
2023-02-03T13:38:37.259Z,97654.91
2023-02-03T13:41:08.407Z,97649.44
2023-02-03T13:43:39.055Z,97630.19
2023-02-03T13:46:17.810Z,97621.75
2023-02-03T13:48:44.796Z,97625.19
2023-02-03T13:51:22.887Z,97627.03
2023-02-03T13:53:50.624Z,97632.72
2023-02-03T13:56:22.321Z,97621.03
2023-02-03T13:59:02.379Z,97608.47
2023-02-03T14:01:39.982Z,97651.47
2023-02-03T14:04:27.598Z,97626.56
2023-02-03T14:06:56.840Z,97641.09
2023-02-03T14:09:35.667Z,97641.66
2023-02-03T14:12:22.232Z,97635.75
2023-02-03T14:14:52.222Z,97620.00
2023-02-03T14:17:34.222Z,97618.41
2023-02-03T14:20:01.777Z,97604.97
2023-02-03T14:22:28.778Z,97593.31
2023-02-03T14:24:56.812Z,97582.53
2023-02-03T14:27:25.227Z,97573.16
2023-02-03T14:30:15.060Z,97561.75
2023-02-03T14:32:54.581Z,97559.38
2023-02-03T14:35:34.184Z,97568.16
2023-02-03T14:38:02.821Z,97565.06
2023-02-03T14:40:58.409Z,97550.00
2023-02-03T14:43:39.824Z,97551.47
2023-02-03T14:46:16.870Z,97558.72
2023-02-03T14:48:43.922Z,97578.69
2023-02-03T14:51:22.441Z,97581.47
2023-02-03T14:54:22.112Z,97565.44
2023-02-03T14:57:07.654Z,97582.75
2023-02-03T14:59:44.977Z,97578.38
2023-02-03T15:02:26.010Z,97591.44
2023-02-03T15:05:12.939Z,97590.56
2023-02-03T15:07:49.337Z,97593.63
2023-02-03T15:10:21.401Z,97586.00
2023-02-03T15:12:49.551Z,97577.63
2023-02-03T15:15:26.765Z,97582.09
2023-02-03T15:17:54.804Z,97567.53
2023-02-03T15:20:29.552Z,97576.16
2023-02-03T15:22:56.508Z,97569.09
2023-02-03T15:25:25.705Z,97568.03
2023-02-03T15:27:53.109Z,97577.03
2023-02-03T15:30:28.668Z,97554.94
2023-02-03T15:33:06.850Z,97551.81
2023-02-03T15:35:35.373Z,97574.03
2023-02-03T15:38:04.752Z,97590.06
2023-02-03T15:40:59.014Z,97603.16
2023-02-03T15:43:34.246Z,97586.88
2023-02-03T15:46:11.640Z,97601.34
2023-02-03T15:49:01.765Z,97607.81
2023-02-03T15:51:48.931Z,97599.50
2023-02-03T15:54:17.306Z,97602.56
2023-02-03T15:57:05.700Z,97621.25
2023-02-03T15:59:37.175Z,97623.78
2023-02-03T16:02:14.416Z,97625.94
2023-02-03T16:04:41.366Z,97626.47
2023-02-03T16:07:30.624Z,97587.75
2023-02-03T16:10:00.590Z,97637.47
2023-02-03T16:12:31.387Z,97627.16
2023-02-03T16:14:59.293Z,97627.72
2023-02-03T16:17:33.333Z,97632.41
2023-02-03T16:20:12.589Z,97663.56
2023-02-03T16:22:43.129Z,97642.94
2023-02-03T16:25:19.996Z,97644.41
2023-02-03T16:28:23.536Z,97634.38
2023-02-03T16:31:22.051Z,97637.91
2023-02-03T16:34:08.720Z,97630.53
2023-02-03T16:36:58.915Z,97629.94
2023-02-03T16:39:45.422Z,97644.84
2023-02-03T16:42:38.433Z,97606.03
2023-02-03T16:45:33.401Z,97613.63
2023-02-03T16:48:19.148Z,97611.44
2023-02-03T16:50:53.042Z,97616.09
2023-02-03T16:53:24.240Z,97622.31
2023-02-03T16:55:51.496Z,97614.38
2023-02-03T16:58:18.843Z,97624.53
2023-02-03T17:00:47.575Z,97620.19
2023-02-03T17:03:16.369Z,97625.34
2023-02-03T17:05:44.152Z,97629.31
2023-02-03T17:08:12.319Z,97623.34
2023-02-03T17:10:40.830Z,97634.31
2023-02-03T17:13:10.796Z,97632.69
2023-02-03T17:15:45.772Z,97652.59
2023-02-03T17:18:14.999Z,97631.06
2023-02-03T17:20:42.761Z,97628.72
2023-02-03T17:23:09.878Z,97626.13
2023-02-03T17:25:37.054Z,97610.56
2023-02-03T17:28:05.163Z,97625.63
2023-02-03T17:30:35.562Z,97620.59
2023-02-03T17:33:03.170Z,97636.88
2023-02-03T17:35:30.436Z,97628.72
2023-02-03T17:37:57.870Z,97631.03
2023-02-03T17:54:11.157Z,97593.03
2023-02-03T17:56:38.108Z,97606.16
2023-02-03T17:59:05.593Z,97597.88
2023-02-03T18:01:32.532Z,97585.78
2023-02-03T18:04:01.674Z,97587.84
2023-02-03T18:06:29.355Z,97566.59
2023-02-03T18:09:01.292Z,97566.19
2023-02-03T18:11:29.208Z,97558.66
2023-02-03T18:13:56.468Z,97579.63
2023-02-03T18:16:29.388Z,97583.19
2023-02-03T18:18:56.453Z,97571.53
2023-02-03T18:21:24.849Z,97622.66
2023-02-03T18:23:51.842Z,97630.72
2023-02-03T18:26:19.666Z,97633.78
2023-02-03T18:28:46.822Z,97623.34
2023-02-03T18:31:15.734Z,97626.69
2023-02-03T18:33:43.453Z,97626.81
2023-02-03T18:36:12.580Z,97630.22
2023-02-03T18:38:40.521Z,97611.22
2023-02-03T18:41:14.572Z,97603.94
2023-02-03T18:43:41.911Z,97583.47
2023-02-03T18:46:09.990Z,97595.41
2023-02-03T18:48:36.964Z,97606.53
2023-02-03T18:51:07.381Z,97585.75
2023-02-03T18:53:34.330Z,97595.81
2023-02-03T18:56:01.431Z,97613.22
2023-02-03T18:58:28.738Z,97630.19
2023-02-03T19:00:56.152Z,97627.50
2023-02-03T19:03:24.901Z,97623.41
2023-02-03T19:05:51.838Z,97628.50
2023-02-03T19:08:18.781Z,97612.38
2023-02-03T19:10:47.464Z,97613.16
2023-02-03T19:13:14.532Z,97604.88
2023-02-03T19:15:42.080Z,97581.09
2023-02-03T19:18:09.264Z,97602.69
2023-02-03T19:20:36.337Z,97609.09
2023-02-03T19:23:04.525Z,97602.63
2023-02-03T19:25:31.471Z,97613.63
2023-02-03T19:27:58.535Z,97636.88
2023-02-03T19:30:25.548Z,97645.50
2023-02-03T19:32:52.611Z,97637.06
2023-02-03T19:35:19.650Z,97644.91
2023-02-03T19:37:46.555Z,97648.38
2023-02-03T19:40:13.578Z,97645.47
2023-02-03T19:42:40.478Z,97654.19
2023-02-03T19:45:07.746Z,97650.94
2023-02-03T19:47:34.766Z,97649.00
2023-02-03T19:50:01.816Z,97648.75
2023-02-03T19:52:28.873Z,97629.75
2023-02-03T19:54:56.968Z,97652.06
2023-02-03T19:57:23.959Z,97640.59
2023-02-03T19:59:50.936Z,97658.81
2023-02-03T20:02:18.161Z,97655.84
2023-02-03T20:04:45.289Z,97645.59
2023-02-03T20:07:13.502Z,97657.78
2023-02-03T20:09:40.406Z,97669.41
2023-02-03T20:12:07.389Z,97677.59
2023-02-03T20:14:34.480Z,97681.44
2023-02-03T20:17:03.375Z,97686.25
2023-02-03T20:19:30.323Z,97665.19
2023-02-03T20:21:57.431Z,97677.41
2023-02-03T20:24:25.048Z,97694.44
2023-02-03T20:26:52.102Z,97689.75
2023-02-03T20:29:19.304Z,97685.34
2023-02-03T20:31:46.454Z,97686.19
2023-02-03T20:34:13.487Z,97698.66
2023-02-03T20:36:40.399Z,97699.41
2023-02-03T20:39:19.244Z,97701.59
2023-02-03T20:41:46.305Z,97683.44
2023-02-03T20:44:13.727Z,97676.75
2023-02-03T20:46:40.920Z,97683.69
2023-02-03T20:49:11.923Z,97695.34
2023-02-03T20:51:38.968Z,97696.63
2023-02-03T20:54:18.382Z,97697.19
2023-02-03T20:56:45.539Z,97694.81
2023-02-03T20:59:13.218Z,97695.03
2023-02-03T21:01:40.451Z,97694.91
2023-02-03T21:04:33.073Z,97694.25
2023-02-03T21:07:00.663Z,97694.16
2023-02-03T21:09:27.691Z,97693.69
2023-02-03T21:11:55.144Z,97694.22
2023-02-03T21:14:33.148Z,97683.47
2023-02-03T21:17:00.753Z,97695.06
2023-02-03T21:19:31.663Z,97702.22
2023-02-03T21:21:59.272Z,97698.13
2023-02-03T21:24:31.956Z,97704.19
2023-02-03T21:26:59.738Z,97707.47
2023-02-03T21:29:28.928Z,97688.31
2023-02-03T21:31:55.973Z,97692.69
2023-02-03T21:34:25.913Z,97702.28
2023-02-03T21:36:52.846Z,97697.28
2023-02-03T21:39:30.215Z,97703.19
2023-02-03T21:41:57.519Z,97710.00
2023-02-03T21:44:36.138Z,97706.81
2023-02-03T21:47:19.744Z,97710.09
2023-02-03T21:49:46.695Z,97712.97
2023-02-03T21:52:14.073Z,97713.06
2023-02-03T21:54:43.288Z,97704.94
2023-02-03T21:57:15.024Z,97710.56
2023-02-03T21:59:42.800Z,97715.34
2023-02-03T22:02:29.401Z,97715.25
2023-02-03T22:04:57.743Z,97709.03
2023-02-03T22:07:24.749Z,97715.19
2023-02-03T22:09:51.802Z,97707.34
2023-02-03T22:12:18.764Z,97712.31
2023-02-03T22:14:45.862Z,97721.22
2023-02-03T22:17:15.036Z,97721.25
2023-02-03T22:19:41.996Z,97704.25
2023-02-03T22:22:08.947Z,97715.38
2023-02-03T22:24:35.860Z,97720.38
2023-02-03T22:27:02.796Z,97717.94
2023-02-03T22:29:29.740Z,97731.66
2023-02-03T22:31:56.861Z,97743.31
2023-02-03T22:34:23.875Z,97739.50
2023-02-03T22:36:50.783Z,97754.84
2023-02-03T22:39:17.754Z,97762.63
2023-02-03T22:41:44.698Z,97763.47
2023-02-03T22:44:16.063Z,97760.81
2023-02-03T22:46:43.362Z,97750.44
2023-02-03T22:49:10.535Z,97752.94
2023-02-03T22:51:37.592Z,97750.94
2023-02-03T22:54:04.638Z,97750.31
2023-02-03T22:56:31.587Z,97772.34
2023-02-03T22:58:58.525Z,97764.56
2023-02-03T23:01:25.526Z,97763.81
2023-02-03T23:03:52.508Z,97759.50
2023-02-03T23:06:19.454Z,97774.13
2023-02-03T23:08:46.370Z,97777.22
2023-02-03T23:11:13.351Z,97778.38
2023-02-03T23:13:40.300Z,97782.59
2023-02-03T23:16:08.422Z,97776.94
2023-02-03T23:18:35.389Z,97786.13
2023-02-03T23:21:02.345Z,97786.31
2023-02-03T23:23:29.274Z,97785.69
2023-02-03T23:25:56.184Z,97798.19
2023-02-03T23:28:23.159Z,97804.66
2023-02-03T23:30:50.151Z,97807.75
2023-02-03T23:33:17.123Z,97803.22
2023-02-03T23:35:46.926Z,97797.28
2023-02-03T23:38:15.022Z,97800.50
2023-02-03T23:40:42.198Z,97796.75
2023-02-03T23:43:09.145Z,97788.38
2023-02-03T23:45:36.238Z,97801.91
2023-02-03T23:48:03.333Z,97796.94
2023-02-03T23:50:30.692Z,97792.84
2023-02-03T23:52:57.980Z,97792.19
2023-02-03T23:55:25.204Z,97796.31
2023-02-03T23:57:52.182Z,97798.50
